sensor_id;sensor_type;location;lat;lon;timestamp;temperature;humidity
10468;DHT22;5281;48.878;9.394;2023-01-16T00:01:17;5.70;99.90
10468;DHT22;5281;48.878;9.394;2023-01-16T00:03:44;5.70;99.90
10468;DHT22;5281;48.878;9.394;2023-01-16T00:06:10;5.60;99.90
10468;DHT22;5281;48.878;9.394;2023-01-16T00:08:37;5.50;99.90
10468;DHT22;5281;48.878;9.394;2023-01-16T00:11:05;5.50;99.90
10468;DHT22;5281;48.878;9.394;2023-01-16T00:13:32;5.50;99.90
10468;DHT22;5281;48.878;9.394;2023-01-16T00:15:59;5.60;99.90
10468;DHT22;5281;48.878;9.394;2023-01-16T00:18:26;5.70;99.90
10468;DHT22;5281;48.878;9.394;2023-01-16T00:20:53;5.80;99.90
10468;DHT22;5281;48.878;9.394;2023-01-16T00:23:19;5.90;99.90
10468;DHT22;5281;48.878;9.394;2023-01-16T00:25:46;6.00;99.90
10468;DHT22;5281;48.878;9.394;2023-01-16T00:28:14;6.10;99.90
10468;DHT22;5281;48.878;9.394;2023-01-16T00:30:41;6.20;99.90
10468;DHT22;5281;48.878;9.394;2023-01-16T00:33:09;6.30;99.90
10468;DHT22;5281;48.878;9.394;2023-01-16T00:35:36;6.30;99.90
10468;DHT22;5281;48.878;9.394;2023-01-16T00:38:03;6.40;99.90
10468;DHT22;5281;48.878;9.394;2023-01-16T00:40:30;6.50;99.90
10468;DHT22;5281;48.878;9.394;2023-01-16T00:42:57;6.60;99.90
10468;DHT22;5281;48.878;9.394;2023-01-16T00:45:25;6.70;99.90
10468;DHT22;5281;48.878;9.394;2023-01-16T00:47:52;6.80;99.90
10468;DHT22;5281;48.878;9.394;2023-01-16T00:50:19;6.80;99.90
10468;DHT22;5281;48.878;9.394;2023-01-16T00:52:45;6.80;99.90
10468;DHT22;5281;48.878;9.394;2023-01-16T00:55:12;6.80;99.90
10468;DHT22;5281;48.878;9.394;2023-01-16T00:57:39;6.90;99.90
10468;DHT22;5281;48.878;9.394;2023-01-16T01:00:07;6.90;99.90
10468;DHT22;5281;48.878;9.394;2023-01-16T01:02:35;6.90;99.90
10468;DHT22;5281;48.878;9.394;2023-01-16T01:05:02;6.90;99.90
10468;DHT22;5281;48.878;9.394;2023-01-16T01:07:28;6.90;99.90
10468;DHT22;5281;48.878;9.394;2023-01-16T01:09:55;6.80;99.90
10468;DHT22;5281;48.878;9.394;2023-01-16T01:12:22;6.80;99.90
10468;DHT22;5281;48.878;9.394;2023-01-16T01:14:49;6.80;99.90
10468;DHT22;5281;48.878;9.394;2023-01-16T01:17:16;6.70;99.90
10468;DHT22;5281;48.878;9.394;2023-01-16T01:19:44;6.80;99.90
10468;DHT22;5281;48.878;9.394;2023-01-16T01:22:11;6.80;99.90
10468;DHT22;5281;48.878;9.394;2023-01-16T01:24:37;6.80;99.90
10468;DHT22;5281;48.878;9.394;2023-01-16T01:27:04;6.70;99.90
10468;DHT22;5281;48.878;9.394;2023-01-16T01:29:31;6.60;99.90
10468;DHT22;5281;48.878;9.394;2023-01-16T01:31:57;6.50;99.90
10468;DHT22;5281;48.878;9.394;2023-01-16T01:34:24;6.40;99.90
10468;DHT22;5281;48.878;9.394;2023-01-16T01:36:52;6.20;99.90
10468;DHT22;5281;48.878;9.394;2023-01-16T01:39:19;6.10;99.90
10468;DHT22;5281;48.878;9.394;2023-01-16T01:41:46;6.00;99.90
10468;DHT22;5281;48.878;9.394;2023-01-16T01:44:47;5.90;99.90
10468;DHT22;5281;48.878;9.394;2023-01-16T01:47:17;5.80;99.90
10468;DHT22;5281;48.878;9.394;2023-01-16T01:49:46;5.80;99.90
10468;DHT22;5281;48.878;9.394;2023-01-16T01:52:16;5.70;99.90
10468;DHT22;5281;48.878;9.394;2023-01-16T01:54:47;5.70;99.90
10468;DHT22;5281;48.878;9.394;2023-01-16T01:57:17;5.60;99.90
10468;DHT22;5281;48.878;9.394;2023-01-16T01:59:49;5.50;99.90
10468;DHT22;5281;48.878;9.394;2023-01-16T02:02:21;5.40;99.90
10468;DHT22;5281;48.878;9.394;2023-01-16T02:04:49;5.40;99.90
10468;DHT22;5281;48.878;9.394;2023-01-16T02:07:25;5.30;99.90
10468;DHT22;5281;48.878;9.394;2023-01-16T02:09:56;5.20;99.90
10468;DHT22;5281;48.878;9.394;2023-01-16T02:12:27;5.20;99.90
10468;DHT22;5281;48.878;9.394;2023-01-16T02:14:55;5.20;99.90
10468;DHT22;5281;48.878;9.394;2023-01-16T02:17:22;5.20;99.90
10468;DHT22;5281;48.878;9.394;2023-01-16T02:20:15;5.20;99.90
10468;DHT22;5281;48.878;9.394;2023-01-16T02:26:30;5.10;99.90
10468;DHT22;5281;48.878;9.394;2023-01-16T02:29:21;5.10;99.90
10468;DHT22;5281;48.878;9.394;2023-01-16T02:31:59;4.90;99.90
10468;DHT22;5281;48.878;9.394;2023-01-16T02:34:42;4.90;99.90
10468;DHT22;5281;48.878;9.394;2023-01-16T02:37:19;4.90;99.90
10468;DHT22;5281;48.878;9.394;2023-01-16T02:39:55;4.90;99.90
10468;DHT22;5281;48.878;9.394;2023-01-16T02:42:36;4.80;99.90
10468;DHT22;5281;48.878;9.394;2023-01-16T02:45:13;4.70;99.90
10468;DHT22;5281;48.878;9.394;2023-01-16T02:47:45;4.70;99.90
10468;DHT22;5281;48.878;9.394;2023-01-16T02:50:19;4.70;99.90
10468;DHT22;5281;48.878;9.394;2023-01-16T02:52:52;4.70;99.90
10468;DHT22;5281;48.878;9.394;2023-01-16T02:55:26;4.70;99.90
10468;DHT22;5281;48.878;9.394;2023-01-16T02:57:58;4.80;99.90
10468;DHT22;5281;48.878;9.394;2023-01-16T03:00:26;4.80;99.90
10468;DHT22;5281;48.878;9.394;2023-01-16T03:02:55;4.70;99.90
10468;DHT22;5281;48.878;9.394;2023-01-16T03:05:22;4.70;99.90
10468;DHT22;5281;48.878;9.394;2023-01-16T03:08:19;4.70;99.90
10468;DHT22;5281;48.878;9.394;2023-01-16T03:14:10;4.70;99.90
10468;DHT22;5281;48.878;9.394;2023-01-16T03:16:51;4.60;99.90
10468;DHT22;5281;48.878;9.394;2023-01-16T03:19:32;4.60;99.90
10468;DHT22;5281;48.878;9.394;2023-01-16T03:22:10;4.60;99.90
10468;DHT22;5281;48.878;9.394;2023-01-16T03:24:48;4.60;99.90
10468;DHT22;5281;48.878;9.394;2023-01-16T03:27:27;4.60;99.90
10468;DHT22;5281;48.878;9.394;2023-01-16T03:29:59;4.60;99.90
10468;DHT22;5281;48.878;9.394;2023-01-16T03:32:32;4.60;99.90
10468;DHT22;5281;48.878;9.394;2023-01-16T03:35:05;4.60;99.90
10468;DHT22;5281;48.878;9.394;2023-01-16T03:37:35;4.60;99.90
10468;DHT22;5281;48.878;9.394;2023-01-16T03:40:08;4.80;99.90
10468;DHT22;5281;48.878;9.394;2023-01-16T03:42:52;4.90;99.90
10468;DHT22;5281;48.878;9.394;2023-01-16T03:45:24;4.90;99.90
10468;DHT22;5281;48.878;9.394;2023-01-16T03:47:58;5.00;99.90
10468;DHT22;5281;48.878;9.394;2023-01-16T03:50:28;5.00;99.90
10468;DHT22;5281;48.878;9.394;2023-01-16T03:52:59;5.00;99.90
10468;DHT22;5281;48.878;9.394;2023-01-16T03:55:30;4.90;99.90
10468;DHT22;5281;48.878;9.394;2023-01-16T03:58:01;4.90;99.90
10468;DHT22;5281;48.878;9.394;2023-01-16T04:00:37;4.90;99.90
10468;DHT22;5281;48.878;9.394;2023-01-16T04:03:09;4.90;99.90
10468;DHT22;5281;48.878;9.394;2023-01-16T04:05:44;5.00;99.90
10468;DHT22;5281;48.878;9.394;2023-01-16T04:08:16;5.00;99.90
10468;DHT22;5281;48.878;9.394;2023-01-16T04:10:46;4.90;99.90
10468;DHT22;5281;48.878;9.394;2023-01-16T04:13:16;4.90;99.90
10468;DHT22;5281;48.878;9.394;2023-01-16T04:15:49;4.80;99.90
10468;DHT22;5281;48.878;9.394;2023-01-16T04:18:18;4.80;99.90
10468;DHT22;5281;48.878;9.394;2023-01-16T04:20:48;4.70;99.90
10468;DHT22;5281;48.878;9.394;2023-01-16T04:23:16;4.70;99.90
10468;DHT22;5281;48.878;9.394;2023-01-16T04:25:43;4.70;99.90
10468;DHT22;5281;48.878;9.394;2023-01-16T04:28:11;4.70;99.90
10468;DHT22;5281;48.878;9.394;2023-01-16T04:30:37;4.70;99.90
10468;DHT22;5281;48.878;9.394;2023-01-16T04:33:04;4.70;99.90
10468;DHT22;5281;48.878;9.394;2023-01-16T04:35:31;4.60;99.90
10468;DHT22;5281;48.878;9.394;2023-01-16T04:38:00;4.60;99.90
10468;DHT22;5281;48.878;9.394;2023-01-16T04:40:26;4.60;99.90
10468;DHT22;5281;48.878;9.394;2023-01-16T04:42:53;4.50;99.90
10468;DHT22;5281;48.878;9.394;2023-01-16T04:45:20;4.50;99.90
10468;DHT22;5281;48.878;9.394;2023-01-16T04:47:48;4.50;99.90
10468;DHT22;5281;48.878;9.394;2023-01-16T04:50:16;4.60;99.90
10468;DHT22;5281;48.878;9.394;2023-01-16T04:52:43;4.50;99.90
10468;DHT22;5281;48.878;9.394;2023-01-16T04:55:12;4.50;99.90
10468;DHT22;5281;48.878;9.394;2023-01-16T04:57:39;4.50;99.90
10468;DHT22;5281;48.878;9.394;2023-01-16T05:00:08;4.50;99.90
10468;DHT22;5281;48.878;9.394;2023-01-16T05:02:36;4.50;99.90
10468;DHT22;5281;48.878;9.394;2023-01-16T05:05:03;4.50;99.90
10468;DHT22;5281;48.878;9.394;2023-01-16T05:07:30;4.50;99.90
10468;DHT22;5281;48.878;9.394;2023-01-16T05:09:56;4.50;99.90
10468;DHT22;5281;48.878;9.394;2023-01-16T05:12:24;4.40;99.90
10468;DHT22;5281;48.878;9.394;2023-01-16T05:14:51;4.40;99.90
10468;DHT22;5281;48.878;9.394;2023-01-16T05:17:18;4.40;99.90
10468;DHT22;5281;48.878;9.394;2023-01-16T05:19:48;4.40;99.90
10468;DHT22;5281;48.878;9.394;2023-01-16T05:22:15;4.40;99.90
10468;DHT22;5281;48.878;9.394;2023-01-16T05:24:41;4.40;99.90
10468;DHT22;5281;48.878;9.394;2023-01-16T05:27:08;4.40;99.90
10468;DHT22;5281;48.878;9.394;2023-01-16T05:29:36;4.40;99.90
10468;DHT22;5281;48.878;9.394;2023-01-16T05:32:03;4.50;99.90
10468;DHT22;5281;48.878;9.394;2023-01-16T05:34:30;4.50;99.90
10468;DHT22;5281;48.878;9.394;2023-01-16T05:36:57;4.50;99.90
10468;DHT22;5281;48.878;9.394;2023-01-16T05:39:24;4.50;99.90
10468;DHT22;5281;48.878;9.394;2023-01-16T05:41:50;4.50;99.90
10468;DHT22;5281;48.878;9.394;2023-01-16T05:44:17;4.40;99.90
10468;DHT22;5281;48.878;9.394;2023-01-16T05:46:46;4.30;99.90
10468;DHT22;5281;48.878;9.394;2023-01-16T05:49:12;4.40;99.90
10468;DHT22;5281;48.878;9.394;2023-01-16T05:51:39;4.30;99.90
10468;DHT22;5281;48.878;9.394;2023-01-16T05:54:10;4.30;99.90
10468;DHT22;5281;48.878;9.394;2023-01-16T05:56:37;4.20;99.90
10468;DHT22;5281;48.878;9.394;2023-01-16T05:59:04;4.10;99.90
10468;DHT22;5281;48.878;9.394;2023-01-16T06:01:30;4.00;99.90
10468;DHT22;5281;48.878;9.394;2023-01-16T06:03:58;3.80;99.90
10468;DHT22;5281;48.878;9.394;2023-01-16T06:06:25;3.70;99.90
10468;DHT22;5281;48.878;9.394;2023-01-16T06:08:52;3.60;99.90
10468;DHT22;5281;48.878;9.394;2023-01-16T06:11:18;3.50;99.90
10468;DHT22;5281;48.878;9.394;2023-01-16T06:13:45;3.30;99.90
10468;DHT22;5281;48.878;9.394;2023-01-16T06:16:13;3.30;99.90
10468;DHT22;5281;48.878;9.394;2023-01-16T06:18:39;3.30;99.90
10468;DHT22;5281;48.878;9.394;2023-01-16T06:21:07;3.30;99.90
10468;DHT22;5281;48.878;9.394;2023-01-16T06:23:34;3.30;99.90
10468;DHT22;5281;48.878;9.394;2023-01-16T06:26:01;3.40;99.90
10468;DHT22;5281;48.878;9.394;2023-01-16T06:28:31;3.30;99.90
10468;DHT22;5281;48.878;9.394;2023-01-16T06:30:57;3.20;99.90
10468;DHT22;5281;48.878;9.394;2023-01-16T06:33:24;3.10;99.90
10468;DHT22;5281;48.878;9.394;2023-01-16T06:35:51;3.00;99.90
10468;DHT22;5281;48.878;9.394;2023-01-16T06:38:19;3.00;99.90
10468;DHT22;5281;48.878;9.394;2023-01-16T06:40:47;3.00;99.90
10468;DHT22;5281;48.878;9.394;2023-01-16T06:43:14;3.00;99.90
10468;DHT22;5281;48.878;9.394;2023-01-16T06:45:42;3.00;99.90
10468;DHT22;5281;48.878;9.394;2023-01-16T06:48:10;3.00;99.90
10468;DHT22;5281;48.878;9.394;2023-01-16T06:50:37;2.90;99.90
10468;DHT22;5281;48.878;9.394;2023-01-16T06:53:04;2.90;99.90
10468;DHT22;5281;48.878;9.394;2023-01-16T06:55:32;2.90;99.90
10468;DHT22;5281;48.878;9.394;2023-01-16T06:57:59;2.90;99.90
10468;DHT22;5281;48.878;9.394;2023-01-16T07:00:26;2.90;99.90
10468;DHT22;5281;48.878;9.394;2023-01-16T07:02:54;2.90;99.90
10468;DHT22;5281;48.878;9.394;2023-01-16T07:05:22;3.00;99.90
10468;DHT22;5281;48.878;9.394;2023-01-16T07:07:49;3.10;99.90
10468;DHT22;5281;48.878;9.394;2023-01-16T07:10:17;3.30;99.90
10468;DHT22;5281;48.878;9.394;2023-01-16T07:12:47;3.40;99.90
10468;DHT22;5281;48.878;9.394;2023-01-16T07:15:14;3.50;99.90
10468;DHT22;5281;48.878;9.394;2023-01-16T07:17:58;3.60;99.90
10468;DHT22;5281;48.878;9.394;2023-01-16T07:20:56;3.60;99.90
10468;DHT22;5281;48.878;9.394;2023-01-16T07:23:44;3.60;99.90
10468;DHT22;5281;48.878;9.394;2023-01-16T07:26:14;3.50;99.90
10468;DHT22;5281;48.878;9.394;2023-01-16T07:28:44;3.50;99.90
10468;DHT22;5281;48.878;9.394;2023-01-16T07:31:11;3.50;99.90
10468;DHT22;5281;48.878;9.394;2023-01-16T07:33:39;3.50;99.90
10468;DHT22;5281;48.878;9.394;2023-01-16T07:36:06;3.60;99.90
10468;DHT22;5281;48.878;9.394;2023-01-16T07:38:33;3.60;99.90
10468;DHT22;5281;48.878;9.394;2023-01-16T07:40:59;3.60;99.90
10468;DHT22;5281;48.878;9.394;2023-01-16T07:43:26;3.70;99.90
10468;DHT22;5281;48.878;9.394;2023-01-16T07:45:54;3.80;99.90
10468;DHT22;5281;48.878;9.394;2023-01-16T07:48:22;3.80;99.90
10468;DHT22;5281;48.878;9.394;2023-01-16T07:50:50;3.80;99.90
10468;DHT22;5281;48.878;9.394;2023-01-16T07:53:18;3.90;99.90
10468;DHT22;5281;48.878;9.394;2023-01-16T07:55:47;3.90;99.90
10468;DHT22;5281;48.878;9.394;2023-01-16T07:58:14;4.00;99.90
10468;DHT22;5281;48.878;9.394;2023-01-16T08:00:41;4.10;99.90
10468;DHT22;5281;48.878;9.394;2023-01-16T08:03:10;4.20;99.90
10468;DHT22;5281;48.878;9.394;2023-01-16T08:05:36;4.30;99.90
10468;DHT22;5281;48.878;9.394;2023-01-16T08:08:04;4.40;99.90
10468;DHT22;5281;48.878;9.394;2023-01-16T08:10:31;4.50;99.90
10468;DHT22;5281;48.878;9.394;2023-01-16T08:12:57;4.50;99.90
10468;DHT22;5281;48.878;9.394;2023-01-16T08:15:24;4.60;99.90
10468;DHT22;5281;48.878;9.394;2023-01-16T08:17:51;4.70;99.90
10468;DHT22;5281;48.878;9.394;2023-01-16T08:20:19;4.80;99.90
10468;DHT22;5281;48.878;9.394;2023-01-16T08:22:48;5.10;99.90
10468;DHT22;5281;48.878;9.394;2023-01-16T08:25:17;5.20;99.90
10468;DHT22;5281;48.878;9.394;2023-01-16T08:27:44;5.30;99.90
10468;DHT22;5281;48.878;9.394;2023-01-16T08:30:12;5.30;99.90
10468;DHT22;5281;48.878;9.394;2023-01-16T08:32:39;5.50;99.90
10468;DHT22;5281;48.878;9.394;2023-01-16T08:35:07;5.70;99.90
10468;DHT22;5281;48.878;9.394;2023-01-16T08:37:36;5.80;99.90
10468;DHT22;5281;48.878;9.394;2023-01-16T08:40:04;6.10;99.90
10468;DHT22;5281;48.878;9.394;2023-01-16T08:42:31;6.30;99.90
10468;DHT22;5281;48.878;9.394;2023-01-16T08:45:15;6.50;99.90
10468;DHT22;5281;48.878;9.394;2023-01-16T08:48:00;6.70;99.90
10468;DHT22;5281;48.878;9.394;2023-01-16T08:50:46;6.80;99.90
10468;DHT22;5281;48.878;9.394;2023-01-16T08:53:33;6.80;99.90
10468;DHT22;5281;48.878;9.394;2023-01-16T08:56:00;6.80;99.90
10468;DHT22;5281;48.878;9.394;2023-01-16T08:58:26;6.90;99.90
10468;DHT22;5281;48.878;9.394;2023-01-16T09:00:53;7.00;99.90
10468;DHT22;5281;48.878;9.394;2023-01-16T09:03:20;6.90;99.90
10468;DHT22;5281;48.878;9.394;2023-01-16T09:05:47;6.90;99.90
10468;DHT22;5281;48.878;9.394;2023-01-16T09:08:13;6.80;99.90
10468;DHT22;5281;48.878;9.394;2023-01-16T09:10:41;6.80;99.90
10468;DHT22;5281;48.878;9.394;2023-01-16T09:13:28;6.80;99.90
10468;DHT22;5281;48.878;9.394;2023-01-16T09:16:12;6.80;99.90
10468;DHT22;5281;48.878;9.394;2023-01-16T09:18:39;6.90;99.90
10468;DHT22;5281;48.878;9.394;2023-01-16T09:21:06;7.00;99.90
10468;DHT22;5281;48.878;9.394;2023-01-16T09:23:33;7.00;99.90
10468;DHT22;5281;48.878;9.394;2023-01-16T09:26:01;6.90;99.90
10468;DHT22;5281;48.878;9.394;2023-01-16T09:28:28;6.90;99.90
10468;DHT22;5281;48.878;9.394;2023-01-16T09:30:55;6.90;99.90
10468;DHT22;5281;48.878;9.394;2023-01-16T09:33:21;6.90;99.90
10468;DHT22;5281;48.878;9.394;2023-01-16T09:35:48;6.90;99.90
10468;DHT22;5281;48.878;9.394;2023-01-16T09:38:15;6.90;99.90
10468;DHT22;5281;48.878;9.394;2023-01-16T09:40:44;7.00;99.90
10468;DHT22;5281;48.878;9.394;2023-01-16T09:43:32;7.10;99.90
10468;DHT22;5281;48.878;9.394;2023-01-16T09:46:04;7.20;99.90
10468;DHT22;5281;48.878;9.394;2023-01-16T09:48:34;7.30;99.90
10468;DHT22;5281;48.878;9.394;2023-01-16T09:51:04;7.40;99.90
10468;DHT22;5281;48.878;9.394;2023-01-16T09:53:36;7.50;99.90
10468;DHT22;5281;48.878;9.394;2023-01-16T09:56:26;7.50;99.90
10468;DHT22;5281;48.878;9.394;2023-01-16T09:59:23;7.50;99.90
10468;DHT22;5281;48.878;9.394;2023-01-16T10:01:55;7.60;99.90
10468;DHT22;5281;48.878;9.394;2023-01-16T10:04:25;7.50;99.90
10468;DHT22;5281;48.878;9.394;2023-01-16T10:07:12;7.70;99.90
10468;DHT22;5281;48.878;9.394;2023-01-16T10:09:50;7.90;99.90
10468;DHT22;5281;48.878;9.394;2023-01-16T10:12:19;8.00;99.90
10468;DHT22;5281;48.878;9.394;2023-01-16T10:14:57;8.20;99.90
10468;DHT22;5281;48.878;9.394;2023-01-16T10:17:35;8.30;99.90
10468;DHT22;5281;48.878;9.394;2023-01-16T10:20:34;8.50;99.90
10468;DHT22;5281;48.878;9.394;2023-01-16T10:23:12;8.60;99.90
10468;DHT22;5281;48.878;9.394;2023-01-16T10:25:44;8.60;99.90
10468;DHT22;5281;48.878;9.394;2023-01-16T10:28:24;8.60;99.90
10468;DHT22;5281;48.878;9.394;2023-01-16T10:30:55;8.50;99.90
10468;DHT22;5281;48.878;9.394;2023-01-16T10:33:28;8.60;99.90
10468;DHT22;5281;48.878;9.394;2023-01-16T10:35:58;8.40;99.90
10468;DHT22;5281;48.878;9.394;2023-01-16T10:38:33;8.20;99.90
10468;DHT22;5281;48.878;9.394;2023-01-16T10:41:15;7.90;99.90
10468;DHT22;5281;48.878;9.394;2023-01-16T10:43:57;7.80;99.90
10468;DHT22;5281;48.878;9.394;2023-01-16T10:46:43;7.70;99.90
10468;DHT22;5281;48.878;9.394;2023-01-16T10:49:28;7.60;99.90
10468;DHT22;5281;48.878;9.394;2023-01-16T10:51:57;7.60;99.90
10468;DHT22;5281;48.878;9.394;2023-01-16T10:54:25;7.60;99.90
10468;DHT22;5281;48.878;9.394;2023-01-16T10:56:52;7.60;99.90
10468;DHT22;5281;48.878;9.394;2023-01-16T10:59:20;7.60;99.90
10468;DHT22;5281;48.878;9.394;2023-01-16T11:01:50;7.70;99.90
10468;DHT22;5281;48.878;9.394;2023-01-16T11:04:19;7.90;99.90
10468;DHT22;5281;48.878;9.394;2023-01-16T11:06:46;8.00;99.90
10468;DHT22;5281;48.878;9.394;2023-01-16T11:09:18;8.10;99.90
10468;DHT22;5281;48.878;9.394;2023-01-16T11:11:45;8.20;99.90
10468;DHT22;5281;48.878;9.394;2023-01-16T11:14:34;8.30;99.90
10468;DHT22;5281;48.878;9.394;2023-01-16T11:17:27;8.50;99.90
10468;DHT22;5281;48.878;9.394;2023-01-16T11:20:14;8.70;99.90
10468;DHT22;5281;48.878;9.394;2023-01-16T11:22:45;8.70;99.90
10468;DHT22;5281;48.878;9.394;2023-01-16T11:25:15;8.80;99.90
10468;DHT22;5281;48.878;9.394;2023-01-16T11:27:45;8.80;99.90
10468;DHT22;5281;48.878;9.394;2023-01-16T11:30:18;8.80;99.90
10468;DHT22;5281;48.878;9.394;2023-01-16T11:32:47;8.90;99.90
10468;DHT22;5281;48.878;9.394;2023-01-16T11:35:16;9.00;99.90
10468;DHT22;5281;48.878;9.394;2023-01-16T11:37:47;9.00;99.90
10468;DHT22;5281;48.878;9.394;2023-01-16T11:40:18;9.10;99.90
10468;DHT22;5281;48.878;9.394;2023-01-16T11:42:53;9.10;99.90
10468;DHT22;5281;48.878;9.394;2023-01-16T11:45:43;9.10;99.90
10468;DHT22;5281;48.878;9.394;2023-01-16T11:48:37;9.00;99.90
10468;DHT22;5281;48.878;9.394;2023-01-16T11:51:06;9.00;99.90
10468;DHT22;5281;48.878;9.394;2023-01-16T11:53:34;9.00;99.90
10468;DHT22;5281;48.878;9.394;2023-01-16T11:56:17;8.90;99.90
10468;DHT22;5281;48.878;9.394;2023-01-16T11:58:54;8.80;99.90
10468;DHT22;5281;48.878;9.394;2023-01-16T12:01:38;8.80;99.90
10468;DHT22;5281;48.878;9.394;2023-01-16T12:04:24;8.60;99.90
10468;DHT22;5281;48.878;9.394;2023-01-16T12:06:57;8.50;99.90
10468;DHT22;5281;48.878;9.394;2023-01-16T12:09:40;8.60;99.90
10468;DHT22;5281;48.878;9.394;2023-01-16T12:15:15;8.50;99.90
10468;DHT22;5281;48.878;9.394;2023-01-16T12:17:59;8.60;99.90
10468;DHT22;5281;48.878;9.394;2023-01-16T12:20:38;8.70;99.90
10468;DHT22;5281;48.878;9.394;2023-01-16T12:23:28;8.70;99.90
10468;DHT22;5281;48.878;9.394;2023-01-16T12:26:08;8.80;99.90
10468;DHT22;5281;48.878;9.394;2023-01-16T12:28:43;8.90;99.90
10468;DHT22;5281;48.878;9.394;2023-01-16T12:31:28;8.90;99.90
10468;DHT22;5281;48.878;9.394;2023-01-16T12:34:36;9.10;99.90
10468;DHT22;5281;48.878;9.394;2023-01-16T12:37:17;9.10;99.90
10468;DHT22;5281;48.878;9.394;2023-01-16T12:39:53;9.20;99.90
10468;DHT22;5281;48.878;9.394;2023-01-16T12:42:31;9.20;99.90
10468;DHT22;5281;48.878;9.394;2023-01-16T12:45:29;9.30;99.90
10468;DHT22;5281;48.878;9.394;2023-01-16T12:48:23;9.40;99.90
10468;DHT22;5281;48.878;9.394;2023-01-16T12:51:02;9.50;99.90
10468;DHT22;5281;48.878;9.394;2023-01-16T12:54:07;9.60;99.90
10468;DHT22;5281;48.878;9.394;2023-01-16T12:56:44;9.60;99.90
10468;DHT22;5281;48.878;9.394;2023-01-16T12:59:16;9.80;99.90
10468;DHT22;5281;48.878;9.394;2023-01-16T13:01:46;9.90;99.90
10468;DHT22;5281;48.878;9.394;2023-01-16T13:04:19;10.10;99.90
10468;DHT22;5281;48.878;9.394;2023-01-16T13:06:48;10.20;99.90
10468;DHT22;5281;48.878;9.394;2023-01-16T13:09:22;10.20;99.90
10468;DHT22;5281;48.878;9.394;2023-01-16T13:12:01;10.30;99.90
10468;DHT22;5281;48.878;9.394;2023-01-16T13:14:50;10.20;99.90
10468;DHT22;5281;48.878;9.394;2023-01-16T13:17:21;10.30;99.90
10468;DHT22;5281;48.878;9.394;2023-01-16T13:19:51;10.30;99.90
10468;DHT22;5281;48.878;9.394;2023-01-16T13:22:25;10.20;99.90
10468;DHT22;5281;48.878;9.394;2023-01-16T13:24:59;10.20;99.90
10468;DHT22;5281;48.878;9.394;2023-01-16T13:27:36;10.20;99.90
10468;DHT22;5281;48.878;9.394;2023-01-16T13:30:08;10.30;99.90
10468;DHT22;5281;48.878;9.394;2023-01-16T13:32:41;10.30;99.90
10468;DHT22;5281;48.878;9.394;2023-01-16T13:35:13;10.30;99.90
10468;DHT22;5281;48.878;9.394;2023-01-16T13:38:02;10.40;99.90
10468;DHT22;5281;48.878;9.394;2023-01-16T13:41:10;10.30;99.90
10468;DHT22;5281;48.878;9.394;2023-01-16T13:43:42;10.40;99.90
10468;DHT22;5281;48.878;9.394;2023-01-16T13:46:28;10.50;99.90
10468;DHT22;5281;48.878;9.394;2023-01-16T13:48:59;10.60;99.90
10468;DHT22;5281;48.878;9.394;2023-01-16T13:51:27;10.70;99.90
10468;DHT22;5281;48.878;9.394;2023-01-16T13:53:56;10.80;99.90
10468;DHT22;5281;48.878;9.394;2023-01-16T13:56:26;11.00;99.90
10468;DHT22;5281;48.878;9.394;2023-01-16T13:58:59;11.00;99.90
10468;DHT22;5281;48.878;9.394;2023-01-16T14:01:30;11.30;99.90
10468;DHT22;5281;48.878;9.394;2023-01-16T14:04:26;11.30;99.90
10468;DHT22;5281;48.878;9.394;2023-01-16T14:06:55;11.40;99.90
10468;DHT22;5281;48.878;9.394;2023-01-16T14:09:57;11.60;99.90
10468;DHT22;5281;48.878;9.394;2023-01-16T14:12:34;11.60;99.90
10468;DHT22;5281;48.878;9.394;2023-01-16T14:15:19;11.50;99.90
10468;DHT22;5281;48.878;9.394;2023-01-16T14:18:16;11.40;99.90
10468;DHT22;5281;48.878;9.394;2023-01-16T14:20:50;11.20;99.90
10468;DHT22;5281;48.878;9.394;2023-01-16T14:23:22;11.20;99.90
10468;DHT22;5281;48.878;9.394;2023-01-16T14:26:08;11.10;99.90
10468;DHT22;5281;48.878;9.394;2023-01-16T14:28:38;11.10;99.90
10468;DHT22;5281;48.878;9.394;2023-01-16T14:31:20;10.90;99.90
10468;DHT22;5281;48.878;9.394;2023-01-16T14:33:48;10.70;99.90
10468;DHT22;5281;48.878;9.394;2023-01-16T14:36:15;10.50;99.90
10468;DHT22;5281;48.878;9.394;2023-01-16T14:38:46;10.50;99.90
10468;DHT22;5281;48.878;9.394;2023-01-16T14:41:16;10.40;99.90
10468;DHT22;5281;48.878;9.394;2023-01-16T14:44:13;10.30;99.90
10468;DHT22;5281;48.878;9.394;2023-01-16T14:47:23;10.30;99.90
10468;DHT22;5281;48.878;9.394;2023-01-16T14:50:10;10.10;99.90
10468;DHT22;5281;48.878;9.394;2023-01-16T14:53:17;9.90;99.90
10468;DHT22;5281;48.878;9.394;2023-01-16T14:56:04;10.00;99.90
10468;DHT22;5281;48.878;9.394;2023-01-16T14:58:35;10.10;99.90
10468;DHT22;5281;48.878;9.394;2023-01-16T15:01:08;10.30;99.90
10468;DHT22;5281;48.878;9.394;2023-01-16T15:03:55;10.80;99.90
10468;DHT22;5281;48.878;9.394;2023-01-16T15:06:22;11.40;99.90
10468;DHT22;5281;48.878;9.394;2023-01-16T15:08:50;11.60;99.90
10468;DHT22;5281;48.878;9.394;2023-01-16T15:11:24;11.30;99.90
10468;DHT22;5281;48.878;9.394;2023-01-16T15:14:13;10.90;99.90
10468;DHT22;5281;48.878;9.394;2023-01-16T15:17:09;10.30;99.90
10468;DHT22;5281;48.878;9.394;2023-01-16T15:19:58;9.90;99.90
10468;DHT22;5281;48.878;9.394;2023-01-16T15:22:45;9.60;99.90
10468;DHT22;5281;48.878;9.394;2023-01-16T15:25:22;9.30;99.90
10468;DHT22;5281;48.878;9.394;2023-01-16T15:27:56;9.20;99.90
10468;DHT22;5281;48.878;9.394;2023-01-16T15:30:30;8.90;99.90
10468;DHT22;5281;48.878;9.394;2023-01-16T15:32:59;8.60;99.90
10468;DHT22;5281;48.878;9.394;2023-01-16T15:35:40;8.50;99.90
10468;DHT22;5281;48.878;9.394;2023-01-16T15:38:08;8.30;99.90
10468;DHT22;5281;48.878;9.394;2023-01-16T15:40:36;8.30;99.90
10468;DHT22;5281;48.878;9.394;2023-01-16T15:43:03;8.20;99.90
10468;DHT22;5281;48.878;9.394;2023-01-16T15:45:52;8.20;99.90
10468;DHT22;5281;48.878;9.394;2023-01-16T15:48:43;8.40;99.90
10468;DHT22;5281;48.878;9.394;2023-01-16T15:51:16;8.40;99.90
10468;DHT22;5281;48.878;9.394;2023-01-16T15:53:48;8.50;99.90
10468;DHT22;5281;48.878;9.394;2023-01-16T15:56:22;8.60;99.90
10468;DHT22;5281;48.878;9.394;2023-01-16T15:58:50;8.60;99.90
10468;DHT22;5281;48.878;9.394;2023-01-16T16:01:25;8.60;99.90
10468;DHT22;5281;48.878;9.394;2023-01-16T16:03:54;8.60;99.90
10468;DHT22;5281;48.878;9.394;2023-01-16T16:06:23;8.60;99.90
10468;DHT22;5281;48.878;9.394;2023-01-16T16:08:52;8.50;99.90
10468;DHT22;5281;48.878;9.394;2023-01-16T16:11:21;8.50;99.90
10468;DHT22;5281;48.878;9.394;2023-01-16T16:14:06;8.50;99.90
10468;DHT22;5281;48.878;9.394;2023-01-16T16:17:00;8.20;99.90
10468;DHT22;5281;48.878;9.394;2023-01-16T16:19:46;8.00;99.90
10468;DHT22;5281;48.878;9.394;2023-01-16T16:22:16;8.00;99.90
10468;DHT22;5281;48.878;9.394;2023-01-16T16:25:07;7.90;99.90
10468;DHT22;5281;48.878;9.394;2023-01-16T16:27:34;7.90;99.90
10468;DHT22;5281;48.878;9.394;2023-01-16T16:30:03;7.90;99.90
10468;DHT22;5281;48.878;9.394;2023-01-16T16:32:35;7.90;99.90
10468;DHT22;5281;48.878;9.394;2023-01-16T16:35:04;7.80;99.90
10468;DHT22;5281;48.878;9.394;2023-01-16T16:37:31;7.80;99.90
10468;DHT22;5281;48.878;9.394;2023-01-16T16:40:02;7.70;99.90
10468;DHT22;5281;48.878;9.394;2023-01-16T16:42:51;7.60;99.90
10468;DHT22;5281;48.878;9.394;2023-01-16T16:45:26;7.60;99.90
10468;DHT22;5281;48.878;9.394;2023-01-16T16:48:19;7.60;99.90